Flight Track Log - Related Links

Times and Time Zones

All times are in EDT time to prevent confusion due to time zone crossing. See the ASQ3827 flight status page for this flight to view local times or setup timezone preferences in your user account.

Time Position Orientation Groundspeed Altitude Reporting Facility
EDT Latitude Longitude Course Direction KTS MPH feet Rate Location/Type
Sun 11:06:14 AM 39.0500 -84.7500 270° West 155 178 2,800  Level Cincinnati TRACON
Sun 11:07:38 AM 39.0500 -84.8500 270° West 229 264 5,000 1,385 Climbing Cincinnati TRACON
Sun 11:08:11 AM 39.0486 -84.8931 268° West 235 270 5,500 1,516 Climbing Indianapolis Center
Sun 11:09:13 AM 39.0203 -84.9769 247° West 249 287 7,400 1,694 Climbing Indianapolis Center
Sun 11:10:15 AM 38.9433 -84.9708 176° South 272 313 9,000 1,561 Climbing Indianapolis Center
Sun 11:11:16 AM 38.8653 -84.9725 181° South 273 314 10,600 1,268 Climbing Indianapolis Center
Sun 11:12:18 AM 38.7808 -84.9753 181° South 284 327 11,600 919 Climbing Indianapolis Center
Sun 11:13:20 AM 38.7050 -85.0347 211° Southwest 312 359 12,500 927 Climbing Indianapolis Center
Sun 11:14:21 AM 38.6267 -85.1058 215° Southwest 322 371 13,500 976 Climbing Indianapolis Center
Sun 11:15:23 AM 38.5517 -85.1731 215° Southwest 324 373 14,500 919 Climbing Indianapolis Center
Sun 11:16:25 AM 38.4764 -85.2428 216° Southwest 335 386 15,400 1,016 Climbing Indianapolis Center
Sun 11:17:27 AM 38.3817 -85.3294 216° Southwest 342 394 16,600 1,073 Climbing Indianapolis Center
Sun 11:18:28 AM 38.3033 -85.4000 215° Southwest 344 396 17,600 878 Climbing Indianapolis Center
Sun 11:19:30 AM 38.2214 -85.4661 212° Southwest 344 396 18,400 871 Climbing Indianapolis Center
Sun 11:20:32 AM 38.1361 -85.5300 211° Southwest 347 399 19,400 968 Climbing Indianapolis Center
Sun 11:21:34 AM 38.0506 -85.5961 211° Southwest 351 404 20,400 976 Climbing Indianapolis Center
Sun 11:22:35 AM 37.9644 -85.6611 211° Southwest 355 409 21,400 927 Climbing Indianapolis Center
Sun 11:23:37 AM 37.8786 -85.7283 212° Southwest 355 409 22,300 919 Climbing Indianapolis Center
Sun 11:24:39 AM 37.7956 -85.7997 214° Southwest 357 411 23,300 968 Climbing Indianapolis Center
Sun 11:25:41 AM 37.7236 -85.8942 226° Southwest 366 421 24,300 1,016 Climbing Indianapolis Center
Sun 11:26:43 AM 37.6397 -86.0033 226° Southwest 363 418 25,400 1,024 Climbing Indianapolis Center
Sun 11:27:44 AM 37.5697 -86.0947 226° Southwest 363 418 26,400 976 Climbing Indianapolis Center
Sun 11:28:46 AM 37.5017 -86.1825 226° Southwest 359 413 27,400 919 Climbing Indianapolis Center
Sun 11:29:48 AM 37.4328 -86.2711 226° Southwest 356 410 28,300 919 Climbing Indianapolis Center
Sun 11:30:50 AM 37.3642 -86.3617 226° Southwest 355 409 29,300 968 Climbing Indianapolis Center
Sun 11:31:52 AM 37.2956 -86.4489 225° Southwest 354 407 30,300 919 Climbing Indianapolis Center
Sun 11:32:54 AM 37.2281 -86.5356 226° Southwest 348 400 31,200 823 Climbing Indianapolis Center
Sun 11:33:56 AM 37.1606 -86.6217 225° Southwest 348 400 32,000 485 Climbing Indianapolis Center
Sun 11:34:33 AM 37.1142 -86.6803 225° Southwest 346 398 32,000  Level Memphis Center
Sun 11:35:35 AM 37.0400 -86.7761 226° Southwest 368 423 32,000  Level Memphis Center
Sun 11:36:37 AM 36.9481 -86.8950 226° Southwest 399 459 32,000 192 Level Memphis Center
Sun 11:37:40 AM 36.8656 -86.9983 225° Southwest 413 475 32,400 624 Climbing Memphis Center
Sun 11:38:42 AM 36.7858 -87.1006 226° Southwest 413 475 33,300 919 Climbing Memphis Center
Sun 11:39:44 AM 36.7067 -87.1989 225° Southwest 407 468 34,300 968 Climbing Memphis Center
Sun 11:40:46 AM 36.6300 -87.2964 226° Southwest 397 457 35,300 823 Climbing Memphis Center
Sun 11:41:48 AM 36.5792 -87.4119 241° Southwest 384 442 36,000 339 Climbing Memphis Center
Sun 11:42:50 AM 36.5247 -87.5575 245° Southwest 391 450 36,000  Level Memphis Center
Sun 11:43:52 AM 36.4764 -87.6869 245° Southwest 406 467 36,000  Level Memphis Center
Sun 11:44:54 AM 36.4086 -87.8106 236° Southwest 423 487 36,000  Level Memphis Center
Sun 11:45:56 AM 36.3322 -87.9333 232° Southwest 439 505 36,000  Level Memphis Center
Sun 11:46:58 AM 36.2558 -88.0586 233° Southwest 446 513 36,000  Level Memphis Center
Sun 11:48:00 AM 36.1817 -88.1781 232° Southwest 446 513 36,000  Level Memphis Center
Sun 11:49:02 AM 36.0894 -88.3264 232° Southwest 447 514 36,000  Level Memphis Center
Sun 11:50:04 AM 36.0139 -88.4486 233° Southwest 447 514 36,000  Level Memphis Center
Sun 11:51:06 AM 35.9375 -88.5708 232° Southwest 447 514 36,000  Level Memphis Center
Sun 11:52:08 AM 35.8603 -88.6931 232° Southwest 448 516 36,000  Level Memphis Center
Sun 11:53:10 AM 35.7828 -88.8164 232° Southwest 449 517 36,000  Level Memphis Center
Sun 11:54:12 AM 35.7053 -88.9386 232° Southwest 449 517 36,000  Level Memphis Center
Sun 11:55:14 AM 35.6222 -89.0700 232° Southwest 450 518 36,000  Level Memphis Center
Sun 11:56:16 AM 35.5444 -89.1925 232° Southwest 450 518 36,000  Level Memphis Center
Sun 11:57:18 AM 35.4669 -89.3133 232° Southwest 451 519 36,000  Level Memphis Center
Sun 11:58:20 AM 35.3903 -89.4339 232° Southwest 451 519 36,000  Level Memphis Center
Sun 11:59:22 AM 35.2975 -89.5797 232° Southwest 452 520 36,000  Level Memphis Center
Sun 12:00:24 PM 35.2203 -89.7006 232° Southwest 452 520 36,000  Level Memphis Center
Sun 12:01:26 PM 35.1433 -89.8208 232° Southwest 452 520 36,000  Level Memphis Center
Sun 12:02:29 PM 35.0667 -89.9425 232° Southwest 455 524 36,000  Level Memphis Center
Sun 12:03:31 PM 34.9722 -90.0869 231° Southwest 458 527 36,000  Level Memphis Center
Sun 12:04:33 PM 34.8950 -90.2050 231° Southwest 457 526 36,000  Level Memphis Center
Sun 12:05:35 PM 34.8164 -90.3233 231° Southwest 454 522 36,000  Level Memphis Center
Sun 12:06:37 PM 34.7367 -90.4444 231° Southwest 456 525 36,000  Level Memphis Center
Sun 12:07:39 PM 34.6567 -90.5625 231° Southwest 455 524 36,000  Level Memphis Center
Sun 12:08:41 PM 34.5650 -90.7028 232° Southwest 447 514 36,000  Level Memphis Center
Sun 12:09:43 PM 34.4875 -90.8194 231° Southwest 447 514 36,000  Level Memphis Center
Sun 12:10:45 PM 34.4086 -90.9378 231° Southwest 448 516 36,000 -97 Level Memphis Center
Sun 12:11:47 PM 34.3294 -91.0547 231° Southwest 449 517 35,800 -629 Descending Memphis Center
Sun 12:12:49 PM 34.2514 -91.1711 231° Southwest 449 517 34,700 -871 Descending Memphis Center
Sun 12:13:51 PM 34.1731 -91.2886 231° Southwest 449 517 34,000 -339 Descending Memphis Center
Sun 12:14:53 PM 34.0775 -91.4308 231° Southwest 451 519 34,000  Level Memphis Center
Sun 12:15:55 PM 33.9956 -91.5483 230° Southwest 454 522 34,000  Level Memphis Center
Sun 12:16:57 PM 33.9150 -91.6686 231° Southwest 459 528 34,000  Level Memphis Center
Sun 12:17:59 PM 33.8242 -91.8006 230° Southwest 459 528 34,000  Level Memphis Center
Sun 12:19:01 PM 33.7444 -91.9186 231° Southwest 459 528 34,000  Level Memphis Center
Sun 12:20:03 PM 33.6644 -92.0356 231° Southwest 458 527 34,000  Level Memphis Center
Sun 12:21:05 PM 33.5825 -92.1522 230° Southwest 457 526 34,000  Level Memphis Center
Sun 12:22:08 PM 33.4869 -92.2456 219° Southwest 454 522 34,000  Level Memphis Center
Sun 12:23:10 PM 33.3711 -92.2819 195° South 437 503 34,000  Level Memphis Center
Sun 12:24:12 PM 33.2275 -92.3225 193° South 436 502 34,000  Level Memphis Center
Sun 12:25:14 PM 33.1067 -92.3578 194° South 439 505 34,000  Level Memphis Center
Sun 12:25:54 PM 33.0356 -92.3764 192° South 446 513 34,000  Level Fort Worth Center
Sun 12:26:56 PM 32.9144 -92.4108 193° South 447 514 34,000  Level Fort Worth Center
Sun 12:27:59 PM 32.7944 -92.4450 193° South 444 511 34,000  Level Fort Worth Center
Sun 12:29:01 PM 32.6508 -92.4869 194° South 444 511 34,000  Level Fort Worth Center
Sun 12:30:03 PM 32.5311 -92.5203 193° South 443 510 34,000  Level Fort Worth Center
Sun 12:31:05 PM 32.4100 -92.5539 193° South 444 511 34,000  Level Fort Worth Center
Sun 12:32:07 PM 32.2958 -92.5889 195° South 448 516 34,000  Level Fort Worth Center
Sun 12:33:09 PM 32.1489 -92.6286 193° South 451 519 34,000  Level Fort Worth Center
Sun 12:33:44 PM 32.0800 -92.6497 195° South 452 520 34,000  Level Houston Center
Sun 12:34:46 PM 31.9606 -92.6953 198° South 452 520 34,000 -48 Level Houston Center
Sun 12:35:49 PM 31.8739 -92.8072 228° Southwest 461 531 33,900 -48 Descending Houston Center
Sun 12:36:51 PM 31.7900 -92.9189 229° Southwest 459 528 33,900 48 Level Houston Center
Sun 12:37:53 PM 31.7033 -93.0275 227° Southwest 456 525 34,000 48 Climbing Houston Center
Sun 12:38:55 PM 31.5997 -93.1622 228° Southwest 460 529 34,000  Level Houston Center
Sun 12:39:57 PM 31.5125 -93.2722 227° Southwest 461 531 34,000  Level Houston Center
Sun 12:40:59 PM 31.4253 -93.3856 228° Southwest 462 532 34,000  Level Houston Center
Sun 12:42:01 PM 31.3383 -93.4953 227° Southwest 462 532 34,000 -288 Level Houston Center
Sun 12:43:04 PM 31.2522 -93.6056 228° Southwest 463 533 33,400 -1,392 Descending Houston Center
Sun 12:44:06 PM 31.1497 -93.7358 227° Southwest 460 529 31,100 -2,371 Descending Houston Center
Sun 12:45:08 PM 31.0633 -93.8442 227° Southwest 459 528 28,500 -2,468 Descending Houston Center
Sun 12:46:10 PM 30.9794 -93.9492 227° Southwest 450 518 26,000 -2,274 Descending Houston Center
Sun 12:47:12 PM 30.8986 -94.0508 227° Southwest 435 501 23,800 -2,129 Descending Houston Center
Sun 12:48:14 PM 30.8217 -94.1458 227° Southwest 412 474 21,600 -2,352 Descending Houston Center
Sun 12:49:17 PM 30.7364 -94.2547 228° Southwest 408 470 18,900 -2,256 Descending Houston Center
Sun 12:50:19 PM 30.6583 -94.3508 227° Southwest 387 445 16,900 -2,089 Descending Houston Center
Sun 12:51:09 PM 30.5994 -94.4258 228° Southwest 347 399 15,000 -2,032 Descending Houston Center
Sun 12:51:21 PM 30.5928 -94.4325 221° Southwest 352 405 14,800 -1,636 Descending Houston Center
Sun 12:51:53 PM 30.5544 -94.4828 228° Southwest 322 371 13,800 -1,645 Descending Houston Center
Sun 12:52:23 PM 30.5342 -94.5044 223° Southwest 326 375 13,100 -2,032 Descending Houston Center
Sun 12:52:55 PM 30.4811 -94.5481 215° Southwest 324 373 11,700 -2,032 Descending Houston Center
Sun 12:53:25 PM 30.4461 -94.5758 214° Southwest 323 372 11,000 -1,636 Descending Houston Center
Sun 12:54:01 PM 30.3992 -94.6119 214° Southwest 310 357 9,900 -1,645 Descending Houston Center
Sun 12:54:27 PM 30.3778 -94.6286 214° Southwest 310 357 9,300 -1,500 Descending Houston Center
Sun 12:54:57 PM 30.3342 -94.6592 211° Southwest 298 343 8,500 -1,143 Descending Houston Center
Sun 12:55:30 PM 30.3136 -94.6853 228° Southwest 293 337 8,100 -492 Descending Houston Center
Sun 12:55:58 PM 30.2825 -94.7336 233° Southwest 288 331 8,000 -484 Descending Houston Center
Sun 12:56:32 PM 30.2639 -94.7575 228° Southwest 291 335 7,600 -1,433 Descending Houston Center
Sun 12:57:05 PM 30.2250 -94.8133 231° Southwest 281 323 6,400 -1,839 Descending Houston Center
Sun 12:57:34 PM 30.2044 -94.8411 229° Southwest 285 328 5,700 -1,161 Descending Houston Center
Sun 12:58:07 PM 30.1789 -94.8797 233° Southwest 271 312 5,200 -677 Descending Houston Center
Sun 12:58:36 PM 30.1564 -94.9072 227° Southwest 273 314 5,000 -214 Descending Houston Center
Sun 12:59:03 PM 30.1322 -94.9411 230° Southwest 273 314 5,000  Level Houston Center
Sun 12:59:38 PM 30.1081 -94.9753 231° Southwest 273 314 5,000  Level Houston Center
Sun 01:00:10 PM 30.0786 -95.0181 232° Southwest 269 310 5,000  Level Houston Center
Sun 01:00:40 PM 30.0619 -95.0406 229° Southwest 269 310 5,000 -689 Level Houston Center
Sun 01:01:11 PM 30.0356 -95.0764 230° Southwest 235 270 4,300 -871 Descending Houston Center
Sun 01:01:42 PM 30.0208 -95.0983 232° Southwest 243 280 4,100 -873 Descending Houston Center
Sun 01:02:06 PM 30.0031 -95.1311 238° Southwest 215 247 3,500 -1,143 Descending Houston Center
Sun 01:02:45 PM 29.9914 -95.1717 252° West 218 251 2,900 -1,235 Descending Houston Center
Sun 01:03:14 PM 29.9933 -95.2069 274° West 223 257 2,100 -1,258 Descending Houston Center
Sun 01:03:47 PM 29.9928 -95.2397 269° West 218 251 1,600 -982 Descending Houston Center
Sun 01:04:09 PM 29.9944 -95.2647 274° West 176 203 1,200 -774 Descending Houston Center
Sun 01:04:49 PM 29.9939 -95.2939 269° West 195 224 800 -529 Descending Houston Center
Sun 01:05:51 PM 29.9936 -95.3392 270° West 165 190 300 -484 Descending Houston Center
Sun 01:07:00 PM 29.9833 -95.3333 270° West  Level FlightAware Approximate

Login

Don't have an account? Register now (free) for customized features, flight alerts, and more!